sensor_id;sensor_type;location;lat;lon;timestamp;P1;durP1;ratioP1;P2;durP2;ratioP2
68507;SDS011;55510;49.560;19.090;2023-05-27T11:04:43;13.90;;;4.55;;
68507;SDS011;55510;49.560;19.090;2023-05-27T11:07:44;18.20;;;5.47;;
68507;SDS011;55510;49.560;19.090;2023-05-27T11:10:44;12.37;;;4.63;;
68507;SDS011;55510;49.560;19.090;2023-05-27T11:13:45;13.63;;;5.07;;
68507;SDS011;55510;49.560;19.090;2023-05-27T11:16:47;12.87;;;5.00;;
68507;SDS011;55510;49.560;19.090;2023-05-27T11:19:49;10.27;;;3.90;;
68507;SDS011;55510;49.560;19.090;2023-05-27T11:22:52;15.32;;;4.82;;
68507;SDS011;55510;49.560;19.090;2023-05-27T11:25:53;12.23;;;4.40;;
68507;SDS011;55510;49.560;19.090;2023-05-27T11:28:57;27.70;;;19.57;;
68507;SDS011;55510;49.560;19.090;2023-05-27T11:31:58;16.95;;;8.50;;
68507;SDS011;55510;49.560;19.090;2023-05-27T11:34:59;13.23;;;5.60;;
68507;SDS011;55510;49.560;19.090;2023-05-27T11:38:00;19.58;;;6.63;;
68507;SDS011;55510;49.560;19.090;2023-05-27T11:41:08;17.05;;;5.57;;
68507;SDS011;55510;49.560;19.090;2023-05-27T11:44:09;13.95;;;5.45;;
68507;SDS011;55510;49.560;19.090;2023-05-27T11:47:09;18.57;;;11.07;;
68507;SDS011;55510;49.560;19.090;2023-05-27T11:50:10;41.17;;;17.67;;
68507;SDS011;55510;49.560;19.090;2023-05-27T11:53:11;18.90;;;9.87;;
68507;SDS011;55510;49.560;19.090;2023-05-27T11:56:15;25.35;;;15.88;;
68507;SDS011;55510;49.560;19.090;2023-05-27T11:59:16;22.73;;;14.70;;
68507;SDS011;55510;49.560;19.090;2023-05-27T12:02:18;26.00;;;12.50;;
68507;SDS011;55510;49.560;19.090;2023-05-27T12:05:21;18.55;;;8.98;;
68507;SDS011;55510;49.560;19.090;2023-05-27T12:08:22;20.63;;;9.33;;
68507;SDS011;55510;49.560;19.090;2023-05-27T12:11:22;20.90;;;9.25;;
68507;SDS011;55510;49.560;19.090;2023-05-27T12:14:23;13.98;;;6.50;;
68507;SDS011;55510;49.560;19.090;2023-05-27T12:17:24;16.80;;;6.90;;
68507;SDS011;55510;49.560;19.090;2023-05-27T12:20:25;13.23;;;5.83;;
68507;SDS011;55510;49.560;19.090;2023-05-27T12:23:27;14.20;;;5.23;;
68507;SDS011;55510;49.560;19.090;2023-05-27T12:26:28;10.18;;;3.20;;
68507;SDS011;55510;49.560;19.090;2023-05-27T12:29:29;11.37;;;3.57;;
68507;SDS011;55510;49.560;19.090;2023-05-27T12:32:30;11.88;;;4.93;;
68507;SDS011;55510;49.560;19.090;2023-05-27T12:35:31;18.77;;;10.10;;
68507;SDS011;55510;49.560;19.090;2023-05-27T12:38:32;21.98;;;12.13;;
68507;SDS011;55510;49.560;19.090;2023-05-27T12:41:33;11.65;;;4.25;;
68507;SDS011;55510;49.560;19.090;2023-05-27T12:44:34;24.53;;;13.87;;
68507;SDS011;55510;49.560;19.090;2023-05-27T12:47:34;20.65;;;12.70;;
68507;SDS011;55510;49.560;19.090;2023-05-27T12:50:35;12.13;;;4.67;;
68507;SDS011;55510;49.560;19.090;2023-05-27T12:53:36;14.15;;;5.05;;
68507;SDS011;55510;49.560;19.090;2023-05-27T12:56:39;15.70;;;6.10;;
68507;SDS011;55510;49.560;19.090;2023-05-27T12:59:40;12.02;;;4.32;;
68507;SDS011;55510;49.560;19.090;2023-05-27T13:02:42;16.83;;;6.30;;
68507;SDS011;55510;49.560;19.090;2023-05-27T13:05:43;28.03;;;12.77;;
68507;SDS011;55510;49.560;19.090;2023-05-27T13:08:45;22.63;;;10.07;;
68507;SDS011;55510;49.560;19.090;2023-05-27T13:11:45;11.52;;;7.20;;
68507;SDS011;55510;49.560;19.090;2023-05-27T13:14:47;13.13;;;5.47;;
68507;SDS011;55510;49.560;19.090;2023-05-27T13:17:48;26.52;;;6.43;;
68507;SDS011;55510;49.560;19.090;2023-05-27T13:20:50;15.50;;;5.47;;
68507;SDS011;55510;49.560;19.090;2023-05-27T13:23:51;12.37;;;5.10;;
68507;SDS011;55510;49.560;19.090;2023-05-27T13:26:52;14.75;;;5.72;;
68507;SDS011;55510;49.560;19.090;2023-05-27T13:29:53;15.73;;;6.07;;
68507;SDS011;55510;49.560;19.090;2023-05-27T13:32:54;19.25;;;6.90;;
68507;SDS011;55510;49.560;19.090;2023-05-27T13:35:56;9.97;;;4.10;;
68507;SDS011;55510;49.560;19.090;2023-05-27T13:39:00;9.03;;;3.73;;
68507;SDS011;55510;49.560;19.090;2023-05-27T13:42:00;12.98;;;5.20;;
68507;SDS011;55510;49.560;19.090;2023-05-27T13:45:01;11.67;;;6.00;;
68507;SDS011;55510;49.560;19.090;2023-05-27T13:48:02;12.35;;;4.53;;
68507;SDS011;55510;49.560;19.090;2023-05-27T13:51:03;17.60;;;7.23;;
68507;SDS011;55510;49.560;19.090;2023-05-27T13:54:04;15.20;;;4.70;;
68507;SDS011;55510;49.560;19.090;2023-05-27T13:57:04;11.32;;;5.22;;
68507;SDS011;55510;49.560;19.090;2023-05-27T14:00:05;23.10;;;8.87;;
68507;SDS011;55510;49.560;19.090;2023-05-27T14:03:06;21.05;;;6.00;;
68507;SDS011;55510;49.560;19.090;2023-05-27T14:06:07;13.07;;;4.07;;
68507;SDS011;55510;49.560;19.090;2023-05-27T14:09:09;12.35;;;4.13;;
68507;SDS011;55510;49.560;19.090;2023-05-27T14:12:10;11.20;;;3.20;;
68507;SDS011;55510;49.560;19.090;2023-05-27T14:15:11;11.03;;;4.13;;
68507;SDS011;55510;49.560;19.090;2023-05-27T14:18:12;14.55;;;3.45;;
68507;SDS011;55510;49.560;19.090;2023-05-27T14:21:13;11.90;;;4.22;;
68507;SDS011;55510;49.560;19.090;2023-05-27T14:24:15;9.97;;;3.47;;
68507;SDS011;55510;49.560;19.090;2023-05-27T14:27:16;8.77;;;3.05;;
68507;SDS011;55510;49.560;19.090;2023-05-27T14:30:16;12.77;;;4.97;;
68507;SDS011;55510;49.560;19.090;2023-05-27T14:33:20;15.50;;;4.83;;
68507;SDS011;55510;49.560;19.090;2023-05-27T14:36:20;12.30;;;3.85;;
68507;SDS011;55510;49.560;19.090;2023-05-27T14:39:21;15.07;;;5.10;;
68507;SDS011;55510;49.560;19.090;2023-05-27T14:42:22;11.70;;;4.22;;
68507;SDS011;55510;49.560;19.090;2023-05-27T14:45:23;14.57;;;4.10;;
68507;SDS011;55510;49.560;19.090;2023-05-27T14:48:24;13.80;;;6.28;;
68507;SDS011;55510;49.560;19.090;2023-05-27T14:51:25;11.73;;;4.87;;
68507;SDS011;55510;49.560;19.090;2023-05-27T14:54:26;8.50;;;4.13;;
68507;SDS011;55510;49.560;19.090;2023-05-27T14:57:27;21.70;;;8.65;;
68507;SDS011;55510;49.560;19.090;2023-05-27T15:00:28;13.40;;;6.13;;
68507;SDS011;55510;49.560;19.090;2023-05-27T15:03:29;17.65;;;6.90;;
68507;SDS011;55510;49.560;19.090;2023-05-27T15:06:30;10.53;;;4.40;;
68507;SDS011;55510;49.560;19.090;2023-05-27T15:09:31;12.93;;;5.53;;
68507;SDS011;55510;49.560;19.090;2023-05-27T15:12:41;11.10;;;5.20;;
68507;SDS011;55510;49.560;19.090;2023-05-27T15:15:43;9.57;;;4.07;;
68507;SDS011;55510;49.560;19.090;2023-05-27T15:18:44;13.07;;;7.93;;
68507;SDS011;55510;49.560;19.090;2023-05-27T15:21:45;12.53;;;5.47;;
68507;SDS011;55510;49.560;19.090;2023-05-27T15:24:47;11.40;;;4.55;;
68507;SDS011;55510;49.560;19.090;2023-05-27T15:27:48;11.48;;;4.57;;
68507;SDS011;55510;49.560;19.090;2023-05-27T15:30:48;17.23;;;9.33;;
68507;SDS011;55510;49.560;19.090;2023-05-27T15:33:50;17.25;;;7.35;;
68507;SDS011;55510;49.560;19.090;2023-05-27T15:36:51;15.45;;;6.65;;
68507;SDS011;55510;49.560;19.090;2023-05-27T15:39:54;8.03;;;4.00;;
68507;SDS011;55510;49.560;19.090;2023-05-27T15:42:55;12.43;;;6.70;;
68507;SDS011;55510;49.560;19.090;2023-05-27T15:45:55;10.77;;;6.30;;
68507;SDS011;55510;49.560;19.090;2023-05-27T15:48:59;20.10;;;9.97;;
68507;SDS011;55510;49.560;19.090;2023-05-27T15:52:00;17.45;;;7.53;;
68507;SDS011;55510;49.560;19.090;2023-05-27T15:55:01;13.17;;;6.63;;
68507;SDS011;55510;49.560;19.090;2023-05-27T15:58:02;16.37;;;8.93;;
68507;SDS011;55510;49.560;19.090;2023-05-27T16:01:02;18.42;;;11.20;;
68507;SDS011;55510;49.560;19.090;2023-05-27T16:04:04;13.30;;;7.60;;
68507;SDS011;55510;49.560;19.090;2023-05-27T16:07:06;13.15;;;6.88;;
68507;SDS011;55510;49.560;19.090;2023-05-27T16:10:07;13.43;;;6.63;;
68507;SDS011;55510;49.560;19.090;2023-05-27T16:13:08;12.30;;;5.93;;
68507;SDS011;55510;49.560;19.090;2023-05-27T16:16:08;14.70;;;7.00;;
68507;SDS011;55510;49.560;19.090;2023-05-27T16:19:09;12.37;;;5.30;;
68507;SDS011;55510;49.560;19.090;2023-05-27T16:22:10;10.73;;;4.67;;
68507;SDS011;55510;49.560;19.090;2023-05-27T16:25:11;11.38;;;6.00;;
68507;SDS011;55510;49.560;19.090;2023-05-27T16:28:12;10.73;;;4.67;;
68507;SDS011;55510;49.560;19.090;2023-05-27T16:31:13;20.33;;;10.05;;
68507;SDS011;55510;49.560;19.090;2023-05-27T16:34:13;21.00;;;10.33;;
68507;SDS011;55510;49.560;19.090;2023-05-27T16:37:14;14.38;;;7.32;;
68507;SDS011;55510;49.560;19.090;2023-05-27T16:40:15;15.57;;;8.13;;
68507;SDS011;55510;49.560;19.090;2023-05-27T16:43:15;14.38;;;6.68;;
68507;SDS011;55510;49.560;19.090;2023-05-27T16:46:16;9.73;;;5.30;;
68507;SDS011;55510;49.560;19.090;2023-05-27T16:49:17;18.23;;;9.40;;
68507;SDS011;55510;49.560;19.090;2023-05-27T16:52:18;14.27;;;6.10;;
68507;SDS011;55510;49.560;19.090;2023-05-27T16:55:18;12.27;;;5.63;;
68507;SDS011;55510;49.560;19.090;2023-05-27T16:58:19;13.95;;;7.55;;
68507;SDS011;55510;49.560;19.090;2023-05-27T17:01:20;13.57;;;9.20;;
68507;SDS011;55510;49.560;19.090;2023-05-27T17:04:22;11.30;;;5.47;;
68507;SDS011;55510;49.560;19.090;2023-05-27T17:07:23;15.63;;;6.77;;
68507;SDS011;55510;49.560;19.090;2023-05-27T17:10:23;9.60;;;4.03;;
68507;SDS011;55510;49.560;19.090;2023-05-27T17:13:24;11.00;;;6.00;;
68507;SDS011;55510;49.560;19.090;2023-05-27T17:16:26;9.82;;;5.38;;
68507;SDS011;55510;49.560;19.090;2023-05-27T17:19:27;8.85;;;3.80;;
68507;SDS011;55510;49.560;19.090;2023-05-27T17:22:28;8.03;;;3.90;;
68507;SDS011;55510;49.560;19.090;2023-05-27T17:25:28;10.50;;;6.28;;
68507;SDS011;55510;49.560;19.090;2023-05-27T17:28:29;11.00;;;7.17;;
68507;SDS011;55510;49.560;19.090;2023-05-27T17:31:30;11.30;;;5.93;;
68507;SDS011;55510;49.560;19.090;2023-05-27T17:34:32;14.00;;;7.90;;
68507;SDS011;55510;49.560;19.090;2023-05-27T17:37:33;23.83;;;11.83;;
68507;SDS011;55510;49.560;19.090;2023-05-27T17:40:34;22.60;;;12.07;;
68507;SDS011;55510;49.560;19.090;2023-05-27T17:43:35;14.35;;;7.00;;
68507;SDS011;55510;49.560;19.090;2023-05-27T17:46:36;15.43;;;7.00;;
68507;SDS011;55510;49.560;19.090;2023-05-27T17:49:36;13.57;;;5.85;;
68507;SDS011;55510;49.560;19.090;2023-05-27T17:52:40;13.80;;;6.22;;
68507;SDS011;55510;49.560;19.090;2023-05-27T17:55:41;12.60;;;5.97;;
68507;SDS011;55510;49.560;19.090;2023-05-27T17:58:42;16.63;;;7.55;;
68507;SDS011;55510;49.560;19.090;2023-05-27T18:01:42;24.17;;;10.30;;
68507;SDS011;55510;49.560;19.090;2023-05-27T18:04:43;35.20;;;15.23;;
68507;SDS011;55510;49.560;19.090;2023-05-27T18:07:44;41.22;;;17.33;;
68507;SDS011;55510;49.560;19.090;2023-05-27T18:10:45;47.33;;;19.80;;
68507;SDS011;55510;49.560;19.090;2023-05-27T18:13:46;46.67;;;21.58;;
68507;SDS011;55510;49.560;19.090;2023-05-27T18:16:47;46.33;;;19.77;;
68507;SDS011;55510;49.560;19.090;2023-05-27T18:19:48;45.60;;;19.92;;
68507;SDS011;55510;49.560;19.090;2023-05-27T18:22:48;38.33;;;16.00;;
68507;SDS011;55510;49.560;19.090;2023-05-27T18:25:49;31.97;;;13.80;;
68507;SDS011;55510;49.560;19.090;2023-05-27T18:28:50;31.73;;;13.18;;
68507;SDS011;55510;49.560;19.090;2023-05-27T18:31:51;31.80;;;13.33;;
68507;SDS011;55510;49.560;19.090;2023-05-27T18:34:52;38.30;;;15.73;;
68507;SDS011;55510;49.560;19.090;2023-05-27T18:37:56;36.53;;;14.43;;
68507;SDS011;55510;49.560;19.090;2023-05-27T18:40:58;37.15;;;14.35;;
68507;SDS011;55510;49.560;19.090;2023-05-27T18:43:59;38.80;;;14.77;;
68507;SDS011;55510;49.560;19.090;2023-05-27T18:47:00;55.03;;;22.58;;
68507;SDS011;55510;49.560;19.090;2023-05-27T18:50:00;59.53;;;24.00;;
68507;SDS011;55510;49.560;19.090;2023-05-27T18:53:02;52.00;;;20.55;;
68507;SDS011;55510;49.560;19.090;2023-05-27T18:56:02;51.25;;;19.50;;
68507;SDS011;55510;49.560;19.090;2023-05-27T18:59:03;52.27;;;20.60;;
68507;SDS011;55510;49.560;19.090;2023-05-27T19:02:05;45.03;;;17.80;;
68507;SDS011;55510;49.560;19.090;2023-05-27T19:05:06;45.65;;;18.25;;
68507;SDS011;55510;49.560;19.090;2023-05-27T19:08:07;44.00;;;18.33;;
68507;SDS011;55510;49.560;19.090;2023-05-27T19:11:08;41.03;;;16.25;;
68507;SDS011;55510;49.560;19.090;2023-05-27T19:14:09;44.57;;;20.07;;
68507;SDS011;55510;49.560;19.090;2023-05-27T19:17:11;42.95;;;19.38;;
68507;SDS011;55510;49.560;19.090;2023-05-27T19:20:13;51.10;;;22.33;;
68507;SDS011;55510;49.560;19.090;2023-05-27T19:23:15;54.53;;;25.00;;
68507;SDS011;55510;49.560;19.090;2023-05-27T19:26:16;63.60;;;27.03;;
68507;SDS011;55510;49.560;19.090;2023-05-27T19:29:20;52.67;;;24.08;;
68507;SDS011;55510;49.560;19.090;2023-05-27T19:32:21;55.08;;;22.70;;
68507;SDS011;55510;49.560;19.090;2023-05-27T19:35:22;50.27;;;19.90;;
68507;SDS011;55510;49.560;19.090;2023-05-27T19:38:23;45.05;;;21.33;;
68507;SDS011;55510;49.560;19.090;2023-05-27T19:41:24;36.90;;;16.70;;
68507;SDS011;55510;49.560;19.090;2023-05-27T19:44:25;35.78;;;16.95;;
68507;SDS011;55510;49.560;19.090;2023-05-27T19:47:26;29.33;;;13.65;;
68507;SDS011;55510;49.560;19.090;2023-05-27T19:50:27;24.67;;;12.35;;
68507;SDS011;55510;49.560;19.090;2023-05-27T19:53:29;29.47;;;14.47;;
68507;SDS011;55510;49.560;19.090;2023-05-27T19:56:30;32.80;;;15.25;;
68507;SDS011;55510;49.560;19.090;2023-05-27T19:59:33;31.00;;;12.93;;
68507;SDS011;55510;49.560;19.090;2023-05-27T20:02:34;25.05;;;12.18;;
68507;SDS011;55510;49.560;19.090;2023-05-27T20:05:36;22.58;;;10.07;;
68507;SDS011;55510;49.560;19.090;2023-05-27T20:08:37;27.10;;;11.37;;
68507;SDS011;55510;49.560;19.090;2023-05-27T20:11:38;22.02;;;9.88;;
68507;SDS011;55510;49.560;19.090;2023-05-27T20:14:38;23.03;;;9.10;;
68507;SDS011;55510;49.560;19.090;2023-05-27T20:17:39;19.98;;;7.63;;
68507;SDS011;55510;49.560;19.090;2023-05-27T20:20:41;16.02;;;6.68;;
68507;SDS011;55510;49.560;19.090;2023-05-27T20:23:42;16.23;;;7.50;;
68507;SDS011;55510;49.560;19.090;2023-05-27T20:26:42;17.00;;;7.30;;
68507;SDS011;55510;49.560;19.090;2023-05-27T20:29:44;14.43;;;6.57;;
68507;SDS011;55510;49.560;19.090;2023-05-27T20:32:45;18.93;;;6.67;;
68507;SDS011;55510;49.560;19.090;2023-05-27T20:35:47;17.20;;;6.80;;
68507;SDS011;55510;49.560;19.090;2023-05-27T20:38:48;18.80;;;7.87;;
68507;SDS011;55510;49.560;19.090;2023-05-27T20:41:51;16.80;;;7.97;;
68507;SDS011;55510;49.560;19.090;2023-05-27T20:44:52;19.37;;;7.17;;
68507;SDS011;55510;49.560;19.090;2023-05-27T20:47:53;15.13;;;6.05;;
68507;SDS011;55510;49.560;19.090;2023-05-27T20:50:54;15.20;;;7.20;;
68507;SDS011;55510;49.560;19.090;2023-05-27T20:53:55;23.52;;;9.85;;
68507;SDS011;55510;49.560;19.090;2023-05-27T20:56:56;22.43;;;10.30;;
68507;SDS011;55510;49.560;19.090;2023-05-27T21:00:00;22.05;;;9.18;;
68507;SDS011;55510;49.560;19.090;2023-05-27T21:03:01;20.33;;;8.83;;
68507;SDS011;55510;49.560;19.090;2023-05-27T21:06:02;27.67;;;10.70;;
68507;SDS011;55510;49.560;19.090;2023-05-27T21:09:03;18.80;;;9.10;;
68507;SDS011;55510;49.560;19.090;2023-05-27T21:12:04;23.02;;;9.13;;
68507;SDS011;55510;49.560;19.090;2023-05-27T21:15:09;21.83;;;10.93;;
68507;SDS011;55510;49.560;19.090;2023-05-27T21:18:10;27.80;;;13.88;;
68507;SDS011;55510;49.560;19.090;2023-05-27T21:21:11;34.67;;;13.80;;
68507;SDS011;55510;49.560;19.090;2023-05-27T21:24:12;29.52;;;11.55;;
68507;SDS011;55510;49.560;19.090;2023-05-27T21:27:12;30.93;;;12.50;;
68507;SDS011;55510;49.560;19.090;2023-05-27T21:30:13;25.58;;;10.18;;
68507;SDS011;55510;49.560;19.090;2023-05-27T21:33:15;23.02;;;9.80;;
68507;SDS011;55510;49.560;19.090;2023-05-27T21:36:19;27.83;;;11.97;;
68507;SDS011;55510;49.560;19.090;2023-05-27T21:39:20;30.92;;;14.25;;
68507;SDS011;55510;49.560;19.090;2023-05-27T21:42:21;28.88;;;11.50;;
68507;SDS011;55510;49.560;19.090;2023-05-27T21:45:25;25.10;;;11.68;;
68507;SDS011;55510;49.560;19.090;2023-05-27T21:48:27;30.93;;;12.77;;
68507;SDS011;55510;49.560;19.090;2023-05-27T21:51:27;24.48;;;11.77;;
68507;SDS011;55510;49.560;19.090;2023-05-27T21:56:42;26.03;;;11.17;;
68507;SDS011;55510;49.560;19.090;2023-05-27T21:59:42;25.75;;;9.38;;
68507;SDS011;55510;49.560;19.090;2023-05-27T22:02:43;21.80;;;8.60;;
68507;SDS011;55510;49.560;19.090;2023-05-27T22:05:44;20.65;;;8.95;;
68507;SDS011;55510;49.560;19.090;2023-05-27T22:08:47;20.27;;;8.40;;
68507;SDS011;55510;49.560;19.090;2023-05-27T22:11:48;19.80;;;8.20;;
68507;SDS011;55510;49.560;19.090;2023-05-27T22:14:49;20.10;;;8.63;;
68507;SDS011;55510;49.560;19.090;2023-05-27T22:17:50;21.40;;;9.90;;
68507;SDS011;55510;49.560;19.090;2023-05-27T22:20:51;22.27;;;10.17;;
